sensor_id;sensor_type;location;lat;lon;timestamp;temperature;humidity
44517;DHT22;30223;17.182;-96.766;2023-04-01T00:01:24;29.10;39.60
44517;DHT22;30223;17.182;-96.766;2023-04-01T00:03:52;29.10;39.70
44517;DHT22;30223;17.182;-96.766;2023-04-01T00:06:20;29.10;39.70
44517;DHT22;30223;17.182;-96.766;2023-04-01T00:08:46;29.00;39.60
44517;DHT22;30223;17.182;-96.766;2023-04-01T00:11:13;29.00;39.70
44517;DHT22;30223;17.182;-96.766;2023-04-01T00:13:41;29.00;39.70
44517;DHT22;30223;17.182;-96.766;2023-04-01T00:16:08;29.00;39.70
44517;DHT22;30223;17.182;-96.766;2023-04-01T00:18:34;29.00;39.70
44517;DHT22;30223;17.182;-96.766;2023-04-01T00:21:01;29.00;39.70
44517;DHT22;30223;17.182;-96.766;2023-04-01T00:23:28;29.00;39.70
44517;DHT22;30223;17.182;-96.766;2023-04-01T00:25:54;29.00;39.80
44517;DHT22;30223;17.182;-96.766;2023-04-01T00:28:21;29.00;39.80
44517;DHT22;30223;17.182;-96.766;2023-04-01T00:30:48;28.90;39.80
44517;DHT22;30223;17.182;-96.766;2023-04-01T00:33:15;28.90;39.80
44517;DHT22;30223;17.182;-96.766;2023-04-01T00:35:43;28.90;39.90
44517;DHT22;30223;17.182;-96.766;2023-04-01T00:38:10;28.90;39.90
44517;DHT22;30223;17.182;-96.766;2023-04-01T00:40:45;28.90;40.60
44517;DHT22;30223;17.182;-96.766;2023-04-01T00:43:16;28.90;40.10
44517;DHT22;30223;17.182;-96.766;2023-04-01T00:45:45;28.90;40.10
44517;DHT22;30223;17.182;-96.766;2023-04-01T00:48:23;28.90;40.20
44517;DHT22;30223;17.182;-96.766;2023-04-01T00:51:01;28.80;40.10
44517;DHT22;30223;17.182;-96.766;2023-04-01T00:53:30;28.80;40.20
44517;DHT22;30223;17.182;-96.766;2023-04-01T00:56:03;28.80;40.30
44517;DHT22;30223;17.182;-96.766;2023-04-01T00:58:35;28.80;40.30
44517;DHT22;30223;17.182;-96.766;2023-04-01T01:01:03;28.80;40.30
44517;DHT22;30223;17.182;-96.766;2023-04-01T01:03:31;28.80;40.40
44517;DHT22;30223;17.182;-96.766;2023-04-01T01:12:53;28.80;40.50
44517;DHT22;30223;17.182;-96.766;2023-04-01T01:17:56;28.70;40.60
44517;DHT22;30223;17.182;-96.766;2023-04-01T01:32:11;28.70;40.80
44517;DHT22;30223;17.182;-96.766;2023-04-01T01:37:25;28.60;40.90
44517;DHT22;30223;17.182;-96.766;2023-04-01T01:39:57;28.60;40.90
44517;DHT22;30223;17.182;-96.766;2023-04-01T01:42:26;28.60;40.90
44517;DHT22;30223;17.182;-96.766;2023-04-01T01:44:56;28.60;41.00
44517;DHT22;30223;17.182;-96.766;2023-04-01T01:47:25;28.60;41.00
44517;DHT22;30223;17.182;-96.766;2023-04-01T01:49:53;28.60;41.00
44517;DHT22;30223;17.182;-96.766;2023-04-01T01:52:22;28.60;41.00
44517;DHT22;30223;17.182;-96.766;2023-04-01T01:54:54;28.60;41.10
44517;DHT22;30223;17.182;-96.766;2023-04-01T01:57:34;28.60;41.20
44517;DHT22;30223;17.182;-96.766;2023-04-01T02:00:08;28.60;41.20
44517;DHT22;30223;17.182;-96.766;2023-04-01T02:02:47;28.50;41.20
44517;DHT22;30223;17.182;-96.766;2023-04-01T02:05:23;28.50;41.20
44517;DHT22;30223;17.182;-96.766;2023-04-01T02:08:09;28.50;41.20
44517;DHT22;30223;17.182;-96.766;2023-04-01T02:10:41;28.50;41.30
44517;DHT22;30223;17.182;-96.766;2023-04-01T02:13:58;28.50;41.30
44517;DHT22;30223;17.182;-96.766;2023-04-01T02:16:10;28.50;41.30
44517;DHT22;30223;17.182;-96.766;2023-04-01T02:18:41;28.50;41.40
44517;DHT22;30223;17.182;-96.766;2023-04-01T02:21:10;28.40;41.30
44517;DHT22;30223;17.182;-96.766;2023-04-01T02:23:38;28.40;41.40
44517;DHT22;30223;17.182;-96.766;2023-04-01T02:26:07;28.40;41.40
44517;DHT22;30223;17.182;-96.766;2023-04-01T02:28:37;28.40;41.50
44517;DHT22;30223;17.182;-96.766;2023-04-01T02:31:05;28.40;41.50
44517;DHT22;30223;17.182;-96.766;2023-04-01T02:33:32;28.40;41.50
44517;DHT22;30223;17.182;-96.766;2023-04-01T02:35:59;28.40;41.50
44517;DHT22;30223;17.182;-96.766;2023-04-01T02:38:26;28.40;41.60
44517;DHT22;30223;17.182;-96.766;2023-04-01T02:40:58;28.40;41.60
44517;DHT22;30223;17.182;-96.766;2023-04-01T02:43:25;28.40;41.70
44517;DHT22;30223;17.182;-96.766;2023-04-01T02:45:52;28.30;41.70
44517;DHT22;30223;17.182;-96.766;2023-04-01T02:48:19;28.30;41.70
44517;DHT22;30223;17.182;-96.766;2023-04-01T02:50:46;28.30;41.80
44517;DHT22;30223;17.182;-96.766;2023-04-01T02:53:12;28.30;41.80
44517;DHT22;30223;17.182;-96.766;2023-04-01T02:55:39;28.30;41.80
44517;DHT22;30223;17.182;-96.766;2023-04-01T02:58:06;28.30;41.80
44517;DHT22;30223;17.182;-96.766;2023-04-01T03:00:33;28.30;41.90
44517;DHT22;30223;17.182;-96.766;2023-04-01T03:02:59;28.30;41.90
44517;DHT22;30223;17.182;-96.766;2023-04-01T03:05:26;28.30;42.00
44517;DHT22;30223;17.182;-96.766;2023-04-01T03:07:53;28.30;42.00
44517;DHT22;30223;17.182;-96.766;2023-04-01T03:10:19;28.20;42.00
44517;DHT22;30223;17.182;-96.766;2023-04-01T03:12:46;28.20;42.00
44517;DHT22;30223;17.182;-96.766;2023-04-01T03:15:13;28.20;42.00
44517;DHT22;30223;17.182;-96.766;2023-04-01T03:17:43;28.20;42.10
44517;DHT22;30223;17.182;-96.766;2023-04-01T03:20:11;28.20;42.10
44517;DHT22;30223;17.182;-96.766;2023-04-01T03:22:37;28.20;42.20
44517;DHT22;30223;17.182;-96.766;2023-04-01T03:25:05;28.20;42.20
44517;DHT22;30223;17.182;-96.766;2023-04-01T03:27:34;28.20;42.30
44517;DHT22;30223;17.182;-96.766;2023-04-01T03:30:03;28.10;42.20
44517;DHT22;30223;17.182;-96.766;2023-04-01T03:32:29;28.20;42.40
44517;DHT22;30223;17.182;-96.766;2023-04-01T03:34:56;28.20;42.40
44517;DHT22;30223;17.182;-96.766;2023-04-01T03:37:23;28.20;42.40
44517;DHT22;30223;17.182;-96.766;2023-04-01T03:39:50;28.10;42.40
44517;DHT22;30223;17.182;-96.766;2023-04-01T03:42:17;28.10;42.40
44517;DHT22;30223;17.182;-96.766;2023-04-01T03:44:44;28.10;42.50
44517;DHT22;30223;17.182;-96.766;2023-04-01T03:47:11;28.10;42.50
44517;DHT22;30223;17.182;-96.766;2023-04-01T03:49:37;28.10;42.60
44517;DHT22;30223;17.182;-96.766;2023-04-01T03:52:04;28.10;42.60
44517;DHT22;30223;17.182;-96.766;2023-04-01T03:54:34;28.10;42.70
44517;DHT22;30223;17.182;-96.766;2023-04-01T03:57:01;28.10;42.70
44517;DHT22;30223;17.182;-96.766;2023-04-01T03:59:27;28.00;42.70
44517;DHT22;30223;17.182;-96.766;2023-04-01T04:01:54;28.00;42.70
44517;DHT22;30223;17.182;-96.766;2023-04-01T04:04:21;28.00;42.80
44517;DHT22;30223;17.182;-96.766;2023-04-01T04:06:47;28.00;42.80
44517;DHT22;30223;17.182;-96.766;2023-04-01T04:09:14;28.00;42.90
44517;DHT22;30223;17.182;-96.766;2023-04-01T04:11:40;28.00;42.90
44517;DHT22;30223;17.182;-96.766;2023-04-01T04:14:07;28.00;43.00
44517;DHT22;30223;17.182;-96.766;2023-04-01T04:16:35;28.00;42.90
44517;DHT22;30223;17.182;-96.766;2023-04-01T04:19:05;28.00;43.10
44517;DHT22;30223;17.182;-96.766;2023-04-01T04:21:32;27.90;43.00
44517;DHT22;30223;17.182;-96.766;2023-04-01T04:24:00;28.00;43.30
44517;DHT22;30223;17.182;-96.766;2023-04-01T04:26:27;28.00;43.30
44517;DHT22;30223;17.182;-96.766;2023-04-01T04:28:54;27.90;43.20
44517;DHT22;30223;17.182;-96.766;2023-04-01T04:31:22;27.90;43.30
44517;DHT22;30223;17.182;-96.766;2023-04-01T04:33:49;27.90;43.30
44517;DHT22;30223;17.182;-96.766;2023-04-01T04:36:18;27.80;43.30
44517;DHT22;30223;17.182;-96.766;2023-04-01T04:38:45;27.80;43.40
44517;DHT22;30223;17.182;-96.766;2023-04-01T04:41:13;27.80;43.40
44517;DHT22;30223;17.182;-96.766;2023-04-01T04:43:41;27.80;43.40
44517;DHT22;30223;17.182;-96.766;2023-04-01T04:46:10;27.80;43.50
44517;DHT22;30223;17.182;-96.766;2023-04-01T04:48:37;27.80;43.50
44517;DHT22;30223;17.182;-96.766;2023-04-01T04:51:04;27.80;43.60
44517;DHT22;30223;17.182;-96.766;2023-04-01T04:53:31;27.80;43.60
44517;DHT22;30223;17.182;-96.766;2023-04-01T04:55:57;27.80;43.60
44517;DHT22;30223;17.182;-96.766;2023-04-01T04:58:24;27.80;43.60
44517;DHT22;30223;17.182;-96.766;2023-04-01T05:00:50;27.70;43.60
44517;DHT22;30223;17.182;-96.766;2023-04-01T05:03:17;27.70;43.60
44517;DHT22;30223;17.182;-96.766;2023-04-01T05:05:51;27.70;43.70
44517;DHT22;30223;17.182;-96.766;2023-04-01T05:08:18;27.70;43.60
44517;DHT22;30223;17.182;-96.766;2023-04-01T05:10:45;27.70;43.70
44517;DHT22;30223;17.182;-96.766;2023-04-01T05:13:11;27.70;43.70
44517;DHT22;30223;17.182;-96.766;2023-04-01T05:15:38;27.70;43.80
44517;DHT22;30223;17.182;-96.766;2023-04-01T05:18:05;27.70;43.80
44517;DHT22;30223;17.182;-96.766;2023-04-01T05:20:32;27.60;43.70
44517;DHT22;30223;17.182;-96.766;2023-04-01T05:22:59;27.60;43.70
44517;DHT22;30223;17.182;-96.766;2023-04-01T05:25:26;27.60;43.70
44517;DHT22;30223;17.182;-96.766;2023-04-01T05:27:53;27.60;43.80
44517;DHT22;30223;17.182;-96.766;2023-04-01T05:30:20;27.60;43.80
44517;DHT22;30223;17.182;-96.766;2023-04-01T05:32:47;27.60;43.80
44517;DHT22;30223;17.182;-96.766;2023-04-01T05:35:17;27.60;43.80
44517;DHT22;30223;17.182;-96.766;2023-04-01T05:37:43;27.50;43.70
44517;DHT22;30223;17.182;-96.766;2023-04-01T05:40:10;27.50;43.70
44517;DHT22;30223;17.182;-96.766;2023-04-01T05:42:37;27.50;43.80
44517;DHT22;30223;17.182;-96.766;2023-04-01T05:45:04;27.50;43.80
44517;DHT22;30223;17.182;-96.766;2023-04-01T05:47:31;27.50;43.80
44517;DHT22;30223;17.182;-96.766;2023-04-01T05:49:57;27.50;44.40
44517;DHT22;30223;17.182;-96.766;2023-04-01T05:52:24;27.50;43.80
44517;DHT22;30223;17.182;-96.766;2023-04-01T05:54:51;27.40;43.70
44517;DHT22;30223;17.182;-96.766;2023-04-01T05:57:18;27.40;43.80
44517;DHT22;30223;17.182;-96.766;2023-04-01T05:59:44;27.40;43.70
44517;DHT22;30223;17.182;-96.766;2023-04-01T06:02:11;27.40;43.70
44517;DHT22;30223;17.182;-96.766;2023-04-01T06:04:39;27.40;43.80
44517;DHT22;30223;17.182;-96.766;2023-04-01T06:07:17;27.40;43.80
44517;DHT22;30223;17.182;-96.766;2023-04-01T06:09:45;27.40;43.70
44517;DHT22;30223;17.182;-96.766;2023-04-01T06:20:58;27.30;43.60
44517;DHT22;30223;17.182;-96.766;2023-04-01T06:42:50;27.20;43.60
44517;DHT22;30223;17.182;-96.766;2023-04-01T06:46:10;27.20;43.50
44517;DHT22;30223;17.182;-96.766;2023-04-01T06:54:05;27.10;43.50
44517;DHT22;30223;17.182;-96.766;2023-04-01T06:56:33;27.10;43.50
44517;DHT22;30223;17.182;-96.766;2023-04-01T07:01:47;27.10;43.40
44517;DHT22;30223;17.182;-96.766;2023-04-01T07:04:20;27.10;43.50
44517;DHT22;30223;17.182;-96.766;2023-04-01T07:06:54;27.10;43.50
44517;DHT22;30223;17.182;-96.766;2023-04-01T07:09:43;27.10;43.40
44517;DHT22;30223;17.182;-96.766;2023-04-01T07:12:51;27.00;43.40
44517;DHT22;30223;17.182;-96.766;2023-04-01T07:15:24;27.00;43.40
44517;DHT22;30223;17.182;-96.766;2023-04-01T07:17:59;27.00;43.40
44517;DHT22;30223;17.182;-96.766;2023-04-01T07:20:35;27.00;43.40
44517;DHT22;30223;17.182;-96.766;2023-04-01T07:23:27;27.00;43.40
44517;DHT22;30223;17.182;-96.766;2023-04-01T07:26:00;26.90;43.40
44517;DHT22;30223;17.182;-96.766;2023-04-01T07:28:30;27.00;43.40
44517;DHT22;30223;17.182;-96.766;2023-04-01T07:33:54;26.90;43.40
44517;DHT22;30223;17.182;-96.766;2023-04-01T07:36:42;26.90;43.30
44517;DHT22;30223;17.182;-96.766;2023-04-01T07:39:40;26.90;43.30
44517;DHT22;30223;17.182;-96.766;2023-04-01T07:42:29;26.80;43.20
44517;DHT22;30223;17.182;-96.766;2023-04-01T07:48:17;26.80;43.20
44517;DHT22;30223;17.182;-96.766;2023-04-01T07:50:59;26.80;43.20
44517;DHT22;30223;17.182;-96.766;2023-04-01T07:59:15;26.70;43.10
44517;DHT22;30223;17.182;-96.766;2023-04-01T08:10:36;26.70;43.10
44517;DHT22;30223;17.182;-96.766;2023-04-01T08:15:53;26.60;43.00
44517;DHT22;30223;17.182;-96.766;2023-04-01T08:18:40;26.70;43.10
44517;DHT22;30223;17.182;-96.766;2023-04-01T08:21:38;26.60;43.00
44517;DHT22;30223;17.182;-96.766;2023-04-01T08:24:40;26.60;43.00
44517;DHT22;30223;17.182;-96.766;2023-04-01T08:27:41;26.60;43.00
44517;DHT22;30223;17.182;-96.766;2023-04-01T08:30:23;26.50;43.00
44517;DHT22;30223;17.182;-96.766;2023-04-01T08:33:21;26.60;43.00
44517;DHT22;30223;17.182;-96.766;2023-04-01T08:39:02;26.50;43.00
44517;DHT22;30223;17.182;-96.766;2023-04-01T08:44:34;26.50;43.00
44517;DHT22;30223;17.182;-96.766;2023-04-01T08:50:32;26.40;43.00
44517;DHT22;30223;17.182;-96.766;2023-04-01T08:53:18;26.40;42.90
44517;DHT22;30223;17.182;-96.766;2023-04-01T09:04:57;26.40;43.00
44517;DHT22;30223;17.182;-96.766;2023-04-01T09:12:54;26.30;42.90
44517;DHT22;30223;17.182;-96.766;2023-04-01T09:18:16;26.30;42.90
44517;DHT22;30223;17.182;-96.766;2023-04-01T09:37:38;26.20;42.80
44517;DHT22;30223;17.182;-96.766;2023-04-01T09:43:27;26.20;42.80
44517;DHT22;30223;17.182;-96.766;2023-04-01T09:46:34;26.20;42.80
44517;DHT22;30223;17.182;-96.766;2023-04-01T09:49:32;26.20;42.80
44517;DHT22;30223;17.182;-96.766;2023-04-01T09:57:50;26.10;42.70
44517;DHT22;30223;17.182;-96.766;2023-04-01T10:00:38;26.10;42.80
44517;DHT22;30223;17.182;-96.766;2023-04-01T10:03:47;26.00;42.70
44517;DHT22;30223;17.182;-96.766;2023-04-01T10:06:27;26.00;42.60
44517;DHT22;30223;17.182;-96.766;2023-04-01T10:15:12;26.00;42.70
44517;DHT22;30223;17.182;-96.766;2023-04-01T10:17:59;26.00;42.70
44517;DHT22;30223;17.182;-96.766;2023-04-01T10:26:24;25.90;42.60
44517;DHT22;30223;17.182;-96.766;2023-04-01T10:29:58;25.90;42.60
44517;DHT22;30223;17.182;-96.766;2023-04-01T10:40:57;25.80;42.50
44517;DHT22;30223;17.182;-96.766;2023-04-01T10:52:15;25.80;42.50
44517;DHT22;30223;17.182;-96.766;2023-04-01T10:57:30;25.70;42.50
44517;DHT22;30223;17.182;-96.766;2023-04-01T11:24:42;25.50;42.40
44517;DHT22;30223;17.182;-96.766;2023-04-01T11:30:26;25.50;42.40
44517;DHT22;30223;17.182;-96.766;2023-04-01T11:33:35;25.50;42.40
44517;DHT22;30223;17.182;-96.766;2023-04-01T11:36:19;25.40;42.30
44517;DHT22;30223;17.182;-96.766;2023-04-01T11:44:26;25.40;42.30
44517;DHT22;30223;17.182;-96.766;2023-04-01T11:47:20;25.40;42.30
44517;DHT22;30223;17.182;-96.766;2023-04-01T11:52:44;25.30;42.30
44517;DHT22;30223;17.182;-96.766;2023-04-01T12:09:00;25.20;42.30
44517;DHT22;30223;17.182;-96.766;2023-04-01T12:14:33;25.20;42.40
44517;DHT22;30223;17.182;-96.766;2023-04-01T12:17:15;25.20;42.30
44517;DHT22;30223;17.182;-96.766;2023-04-01T12:20:10;25.20;42.40
44517;DHT22;30223;17.182;-96.766;2023-04-01T12:23:51;25.10;42.30
44517;DHT22;30223;17.182;-96.766;2023-04-01T12:32:06;25.10;42.30
44517;DHT22;30223;17.182;-96.766;2023-04-01T12:38:14;25.00;42.20
44517;DHT22;30223;17.182;-96.766;2023-04-01T12:40:51;25.00;42.30
44517;DHT22;30223;17.182;-96.766;2023-04-01T12:46:35;25.00;42.30
44517;DHT22;30223;17.182;-96.766;2023-04-01T12:52:26;24.90;42.30
44517;DHT22;30223;17.182;-96.766;2023-04-01T13:03:41;24.80;42.30
44517;DHT22;30223;17.182;-96.766;2023-04-01T13:09:11;24.80;42.30
44517;DHT22;30223;17.182;-96.766;2023-04-01T13:11:52;24.80;42.40
44517;DHT22;30223;17.182;-96.766;2023-04-01T13:20:14;24.70;42.40
44517;DHT22;30223;17.182;-96.766;2023-04-01T13:25:51;24.70;42.40
44517;DHT22;30223;17.182;-96.766;2023-04-01T13:28:29;24.70;42.40
44517;DHT22;30223;17.182;-96.766;2023-04-01T13:31:06;24.60;42.40
44517;DHT22;30223;17.182;-96.766;2023-04-01T13:36:53;24.60;42.40
44517;DHT22;30223;17.182;-96.766;2023-04-01T13:42:40;24.60;42.50
44517;DHT22;30223;17.182;-96.766;2023-04-01T13:45:23;24.60;42.50
44517;DHT22;30223;17.182;-96.766;2023-04-01T13:50:55;24.50;42.40
44517;DHT22;30223;17.182;-96.766;2023-04-01T13:56:03;24.60;42.60
44517;DHT22;30223;17.182;-96.766;2023-04-01T13:59:03;24.50;42.50
44517;DHT22;30223;17.182;-96.766;2023-04-01T14:06:58;24.50;42.60
44517;DHT22;30223;17.182;-96.766;2023-04-01T14:15:22;24.50;42.70
44517;DHT22;30223;17.182;-96.766;2023-04-01T14:18:00;24.50;42.70
44517;DHT22;30223;17.182;-96.766;2023-04-01T14:35:16;24.50;42.70
44517;DHT22;30223;17.182;-96.766;2023-04-01T14:49:23;24.50;42.70
44517;DHT22;30223;17.182;-96.766;2023-04-01T14:51:52;24.50;42.70
44517;DHT22;30223;17.182;-96.766;2023-04-01T14:54:40;24.50;42.70
44517;DHT22;30223;17.182;-96.766;2023-04-01T14:57:15;24.50;42.70
44517;DHT22;30223;17.182;-96.766;2023-04-01T15:02:55;24.50;43.00
44517;DHT22;30223;17.182;-96.766;2023-04-01T15:05:39;24.50;42.70
44517;DHT22;30223;17.182;-96.766;2023-04-01T15:08:13;24.60;42.80
44517;DHT22;30223;17.182;-96.766;2023-04-01T15:18:49;24.60;42.80
44517;DHT22;30223;17.182;-96.766;2023-04-01T15:26:52;24.70;43.00
44517;DHT22;30223;17.182;-96.766;2023-04-01T15:35:26;24.70;43.00
44517;DHT22;30223;17.182;-96.766;2023-04-01T15:38:21;24.70;43.10
44517;DHT22;30223;17.182;-96.766;2023-04-01T15:43:48;24.70;43.10
44517;DHT22;30223;17.182;-96.766;2023-04-01T16:14:24;25.00;43.30
44517;DHT22;30223;17.182;-96.766;2023-04-01T16:17:10;25.00;43.30
44517;DHT22;30223;17.182;-96.766;2023-04-01T16:19:49;25.00;43.30
44517;DHT22;30223;17.182;-96.766;2023-04-01T16:22:25;25.00;43.30
44517;DHT22;30223;17.182;-96.766;2023-04-01T16:28:27;25.10;43.30
44517;DHT22;30223;17.182;-96.766;2023-04-01T16:31:26;25.10;43.40
44517;DHT22;30223;17.182;-96.766;2023-04-01T16:34:19;25.10;43.40
44517;DHT22;30223;17.182;-96.766;2023-04-01T16:37:17;25.20;43.40
44517;DHT22;30223;17.182;-96.766;2023-04-01T16:40:01;25.20;43.40
44517;DHT22;30223;17.182;-96.766;2023-04-01T16:45:36;25.20;43.50
44517;DHT22;30223;17.182;-96.766;2023-04-01T16:48:21;25.20;43.40
44517;DHT22;30223;17.182;-96.766;2023-04-01T16:50:59;25.30;43.60
44517;DHT22;30223;17.182;-96.766;2023-04-01T16:53:42;25.30;43.60
44517;DHT22;30223;17.182;-96.766;2023-04-01T16:56:49;25.30;43.50
44517;DHT22;30223;17.182;-96.766;2023-04-01T16:59:24;25.40;43.60
44517;DHT22;30223;17.182;-96.766;2023-04-01T17:02:02;25.30;43.50
44517;DHT22;30223;17.182;-96.766;2023-04-01T17:11:04;25.40;43.40
44517;DHT22;30223;17.182;-96.766;2023-04-01T17:24:51;25.60;43.50
44517;DHT22;30223;17.182;-96.766;2023-04-01T17:30:28;25.70;43.70
44517;DHT22;30223;17.182;-96.766;2023-04-01T17:38:59;25.70;44.30
44517;DHT22;30223;17.182;-96.766;2023-04-01T17:44:26;25.80;43.70
44517;DHT22;30223;17.182;-96.766;2023-04-01T17:52:24;25.90;43.80
44517;DHT22;30223;17.182;-96.766;2023-04-01T17:57:43;25.90;43.80
44517;DHT22;30223;17.182;-96.766;2023-04-01T18:01:00;26.00;43.80
44517;DHT22;30223;17.182;-96.766;2023-04-01T18:20:58;26.60;46.00
44517;DHT22;30223;17.182;-96.766;2023-04-01T18:23:51;26.70;45.40
44517;DHT22;30223;17.182;-96.766;2023-04-01T18:26:29;26.70;45.20
44517;DHT22;30223;17.182;-96.766;2023-04-01T18:31:51;26.80;44.90
44517;DHT22;30223;17.182;-96.766;2023-04-01T18:37:48;26.90;44.60
44517;DHT22;30223;17.182;-96.766;2023-04-01T18:40:34;26.90;44.50
44517;DHT22;30223;17.182;-96.766;2023-04-01T18:46:01;27.00;44.30
44517;DHT22;30223;17.182;-96.766;2023-04-01T18:48:44;27.00;44.20
44517;DHT22;30223;17.182;-96.766;2023-04-01T18:54:30;27.10;44.10
44517;DHT22;30223;17.182;-96.766;2023-04-01T18:57:23;27.10;44.10
44517;DHT22;30223;17.182;-96.766;2023-04-01T18:59:57;27.10;44.10
44517;DHT22;30223;17.182;-96.766;2023-04-01T19:02:34;27.20;44.10
44517;DHT22;30223;17.182;-96.766;2023-04-01T19:05:14;27.20;44.10
44517;DHT22;30223;17.182;-96.766;2023-04-01T19:10:17;27.30;44.10
44517;DHT22;30223;17.182;-96.766;2023-04-01T19:13:06;27.30;44.00
44517;DHT22;30223;17.182;-96.766;2023-04-01T19:15:41;27.40;44.10
44517;DHT22;30223;17.182;-96.766;2023-04-01T19:21:18;27.50;44.00
44517;DHT22;30223;17.182;-96.766;2023-04-01T19:26:58;27.50;44.00
44517;DHT22;30223;17.182;-96.766;2023-04-01T19:32:40;27.60;44.00
44517;DHT22;30223;17.182;-96.766;2023-04-01T19:35:36;27.60;44.10
44517;DHT22;30223;17.182;-96.766;2023-04-01T19:38:30;27.70;44.00
44517;DHT22;30223;17.182;-96.766;2023-04-01T19:41:42;27.70;44.10
44517;DHT22;30223;17.182;-96.766;2023-04-01T19:44:22;27.80;44.20
44517;DHT22;30223;17.182;-96.766;2023-04-01T19:47:12;27.90;44.30
44517;DHT22;30223;17.182;-96.766;2023-04-01T19:52:40;28.00;44.40
44517;DHT22;30223;17.182;-96.766;2023-04-01T19:58:26;28.00;46.40
44517;DHT22;30223;17.182;-96.766;2023-04-01T20:00:59;28.20;50.30
44517;DHT22;30223;17.182;-96.766;2023-04-01T20:12:08;28.40;47.30
44517;DHT22;30223;17.182;-96.766;2023-04-01T20:14:57;28.40;47.20
44517;DHT22;30223;17.182;-96.766;2023-04-01T20:17:44;28.40;47.30
44517;DHT22;30223;17.182;-96.766;2023-04-01T20:25:30;28.50;47.70
44517;DHT22;30223;17.182;-96.766;2023-04-01T20:33:45;28.70;47.70
44517;DHT22;30223;17.182;-96.766;2023-04-01T20:36:20;28.70;47.30
44517;DHT22;30223;17.182;-96.766;2023-04-01T20:52:57;28.90;46.50
44517;DHT22;30223;17.182;-96.766;2023-04-01T20:55:57;28.90;46.60
44517;DHT22;30223;17.182;-96.766;2023-04-01T20:58:44;29.00;46.20
44517;DHT22;30223;17.182;-96.766;2023-04-01T21:06:39;29.10;45.90
44517;DHT22;30223;17.182;-96.766;2023-04-01T21:09:16;29.10;44.90
44517;DHT22;30223;17.182;-96.766;2023-04-01T21:14:55;29.10;44.40
44517;DHT22;30223;17.182;-96.766;2023-04-01T21:39:22;29.60;44.00
44517;DHT22;30223;17.182;-96.766;2023-04-01T21:48:02;29.90;42.40
44517;DHT22;30223;17.182;-96.766;2023-04-01T22:02:03;30.00;42.20
44517;DHT22;30223;17.182;-96.766;2023-04-01T22:07:22;30.10;42.80
44517;DHT22;30223;17.182;-96.766;2023-04-01T22:12:50;30.20;42.90
44517;DHT22;30223;17.182;-96.766;2023-04-01T22:18:57;30.10;40.70
44517;DHT22;30223;17.182;-96.766;2023-04-01T22:29:49;30.10;38.00
44517;DHT22;30223;17.182;-96.766;2023-04-01T22:32:39;30.10;37.90
44517;DHT22;30223;17.182;-96.766;2023-04-01T22:35:29;30.10;38.50
44517;DHT22;30223;17.182;-96.766;2023-04-01T22:43:11;30.10;39.10
44517;DHT22;30223;17.182;-96.766;2023-04-01T22:46:09;30.10;39.00
44517;DHT22;30223;17.182;-96.766;2023-04-01T22:49:05;30.10;39.90
44517;DHT22;30223;17.182;-96.766;2023-04-01T22:51:55;30.10;40.10
44517;DHT22;30223;17.182;-96.766;2023-04-01T22:54:31;30.10;40.70
44517;DHT22;30223;17.182;-96.766;2023-04-01T22:58:00;30.10;40.60
44517;DHT22;30223;17.182;-96.766;2023-04-01T23:03:06;30.10;41.20
44517;DHT22;30223;17.182;-96.766;2023-04-01T23:05:35;30.10;41.70
44517;DHT22;30223;17.182;-96.766;2023-04-01T23:08:20;30.10;42.10
44517;DHT22;30223;17.182;-96.766;2023-04-01T23:10:54;30.10;42.30
44517;DHT22;30223;17.182;-96.766;2023-04-01T23:13:46;30.10;42.30
44517;DHT22;30223;17.182;-96.766;2023-04-01T23:16:12;30.10;42.30
44517;DHT22;30223;17.182;-96.766;2023-04-01T23:21:41;30.10;42.40
44517;DHT22;30223;17.182;-96.766;2023-04-01T23:29:18;30.10;40.10
44517;DHT22;30223;17.182;-96.766;2023-04-01T23:31:47;30.10;39.80
44517;DHT22;30223;17.182;-96.766;2023-04-01T23:36:43;30.00;38.40
44517;DHT22;30223;17.182;-96.766;2023-04-01T23:42:11;30.00;38.00
44517;DHT22;30223;17.182;-96.766;2023-04-01T23:44:39;29.90;37.70
44517;DHT22;30223;17.182;-96.766;2023-04-01T23:47:08;29.90;37.70
44517;DHT22;30223;17.182;-96.766;2023-04-01T23:49:48;29.90;37.40
44517;DHT22;30223;17.182;-96.766;2023-04-01T23:52:27;29.90;36.30
44517;DHT22;30223;17.182;-96.766;2023-04-01T23:54:57;29.80;36.30
44517;DHT22;30223;17.182;-96.766;2023-04-01T23:57:34;29.80;36.40
